Flight ASX109

  • Submitted By: Krzysztof H. Blaszkow
  • Departure Airport: Warszawa Chopina (EPWA)
  • Arrival Airport: Gdansk im. Lecha Walesy (EPGD)
  • Aircraft: ATR 72-500 (SP-RYD)
  • Flight Time: 01.23.49
  • Date Submitted: 11/02/2016
  • Status: Accepted
Flight Details
Gross Revenue:
(68 load / € 55.00 per unit
€ 3,740.00
Fuel Cost:
(582.413 fuel used @ 0.45 / unit)
€ 262.09

Additional Log Information:

View Log

[22:13] - Flight 1 ATR 72-500 House Livery
[22:13] - Flight ASX109 is ready to depart EPWA with a final destination of EPGD.
[22:13] - Parking Brake Applied
[22:13] - Beacon Light ON
[22:13] - Boarding
[22:13] - ADF1 - 305.0
[22:13] - ADF2 - 371.0
[22:13] - NAV1 - 114.30
[22:13] - NAV2 - 114.05
[22:13] - COM1 - 125.50
[22:13] - COM2 - 125.27
[22:13] - Transponder - 1200
[22:16] - NAV1 - 113.45
[22:21] - Transponder - 0200
[22:21] - Transponder - 2200
[22:23] - COM1 - 134.92
[22:29] - Transponder - 4507
[22:30] - Navigation Lights ON 3AGL
[22:30] - Logo Lights ON 3AGL
[22:30] - Wing Lights ON 3AGL
[22:30] - Taxi Lights ON 3AGL
[22:30] - Engine 1 Started
[22:31] - Engine 2 Started
[22:32] - Flaps to position 1
[22:34] - Parking Brake Released
[22:34] - Taxiing to Runway
[22:38] - Landing Lights ON 3AGL
[22:38] - Taxi Lights OFF 3AGL
[22:38] - Strobe Lights ON 3AGL
[22:38] - Flaps to position 0
[22:38] - Flaps to position 1
[22:39] - Taking Off with 68 passengers on board
[22:39] - Take off at 127kts, with a pitch of 3deg and 4406lbs of fuel on board
[22:39] - Wind Heading 244 | Wind Speed 9kts | Temperature 9 deg C
[22:39] - METAR Departure: EPWA 012200Z 25006KT 220V290 9999 -RA BKN009 10/09 Q1007 NOSIG

[22:39] - Flaps to position 0 at 433ft and 132kts
[22:39] - Gear up at 213AGL
[22:40] - Climbing to TOC
[22:41] - AutoPilot Engaged at 2578AGL
[22:47] - Landing Lights OFF 9268AGL
[22:59] - NAV2 - 110.30
[22:59] - NAV1 - 116.10
[22:59] - NAV1 - 110.30
[23:02] - TOC reached
[23:02] - Cruise started
[23:08] - TOD reached
[23:08] - Descending to destination
[23:15] - Landing Lights ON 10367AGL
[23:20] - Landing Shortly
[23:25] - Flaps to position 1 at 2982ft and 172kts
[23:25] - Gear down at 2847AGL
[23:27] - AutoPilot Disengaged at 1686AGL
[23:29] - Landed at -82fpm. With 3251lbs of fuel onboard and a pitch angle of 4deg.
[23:29] - Wind Heading 289 | Wind Speed 8kts | Temperature 7 deg C
[23:29] - METAR Arrival: EPGD 012300Z 25009KT 9999 FEW027 06/04 Q1003

[23:29] - Flaps to position 0
[23:30] - Taxiing to Gate
[23:30] - Landing Lights OFF 6AGL
[23:31] - Strobe Lights OFF 6AGL
[23:31] - Taxi Lights ON 6AGL
[23:35] - Parking Brake Applied
[23:35] - Arrived safely at EPGD. We hope you enjoyed your flight!
[23:36] - COM1 - 122.80
[23:36] - Navigation Lights OFF 6AGL
[23:36] - Taxi Lights OFF 6AGL
[23:36] - Logo Lights OFF 6AGL
[23:37] - Wing Lights OFF 6AGL
[23:37] - Engine 1 Stopped
[23:37] - Engine 2 Stopped
[23:38] - Flight 1 ATR 72-500 House Livery
[23:38] - MaxSim Rate: 1x
[23:38] - SiouxAcars ver: 1.0.1.2

Route Map